createdAt,value
2022-09-10T00:00:48.990Z,15.02
2022-09-10T00:06:10.414Z,15.00
2022-09-10T00:11:21.501Z,14.98
2022-09-10T00:16:27.067Z,14.94
2022-09-10T00:21:31.168Z,14.92
2022-09-10T00:26:39.934Z,14.93
2022-09-10T00:31:45.715Z,14.97
2022-09-10T00:36:50.572Z,14.99
2022-09-10T00:41:55.862Z,14.98
2022-09-10T00:47:00.074Z,14.98
2022-09-10T00:52:06.379Z,14.99
2022-09-10T00:57:17.712Z,15.00
2022-09-10T01:02:22.317Z,15.00
2022-09-10T01:07:29.625Z,14.99
2022-09-10T01:12:45.539Z,15.02
2022-09-10T01:18:14.342Z,14.98
2022-09-10T01:23:42.845Z,14.96
2022-09-10T01:29:25.302Z,15.01
2022-09-10T01:34:55.981Z,15.03
2022-09-10T01:40:02.012Z,15.02
2022-09-10T01:45:07.220Z,15.00
2022-09-10T01:50:40.169Z,14.95
2022-09-10T01:56:04.481Z,14.95
2022-09-10T02:01:25.983Z,15.02
2022-09-10T02:06:36.989Z,15.06
2022-09-10T02:11:59.743Z,15.06
2022-09-10T02:17:03.258Z,15.10
2022-09-10T02:22:08.800Z,15.10
2022-09-10T02:27:15.978Z,15.11
2022-09-10T02:32:20.158Z,15.15
2022-09-10T02:37:24.890Z,15.24
2022-09-10T02:42:28.915Z,15.32
2022-09-10T02:47:33.204Z,15.36
2022-09-10T02:52:37.802Z,15.39
2022-09-10T02:57:42.487Z,15.29
2022-09-10T03:02:48.667Z,15.25
2022-09-10T03:07:56.361Z,15.30
2022-09-10T03:13:00.596Z,15.26
2022-09-10T03:18:04.651Z,15.22
2022-09-10T03:23:12.044Z,15.12
2022-09-10T03:28:17.415Z,15.07
2022-09-10T03:33:22.722Z,15.00
2022-09-10T03:38:28.163Z,14.99
2022-09-10T03:43:32.096Z,15.02
2022-09-10T03:48:35.587Z,15.06
2022-09-10T03:53:39.802Z,15.08
2022-09-10T03:58:44.357Z,15.07
2022-09-10T04:03:49.107Z,15.07
2022-09-10T04:08:53.316Z,15.05
2022-09-10T04:13:58.271Z,15.05
2022-09-10T04:19:03.025Z,15.04
2022-09-10T04:24:10.885Z,15.05
2022-09-10T04:29:16.840Z,15.07
2022-09-10T04:34:20.824Z,15.05
2022-09-10T04:39:25.335Z,15.02
2022-09-10T04:44:29.989Z,14.96
2022-09-10T04:49:35.242Z,14.94
2022-09-10T04:54:42.481Z,14.86
2022-09-10T04:59:47.170Z,14.81
2022-09-10T05:04:51.932Z,14.92
2022-09-10T05:09:58.110Z,14.97
2022-09-10T05:15:07.225Z,14.91
2022-09-10T05:20:11.715Z,14.88
2022-09-10T05:25:16.331Z,14.97
2022-09-10T05:30:20.625Z,15.02
2022-09-10T05:35:24.552Z,15.15
2022-09-10T05:40:29.965Z,15.30
2022-09-10T05:45:34.723Z,15.39
2022-09-10T05:50:39.192Z,15.30
2022-09-10T05:55:44.334Z,15.19
2022-09-10T06:00:52.166Z,15.08
2022-09-10T06:05:56.199Z,15.06
2022-09-10T06:11:04.020Z,15.17
2022-09-10T06:16:09.480Z,15.24
2022-09-10T06:21:17.638Z,15.24
2022-09-10T06:26:21.983Z,15.20
2022-09-10T06:31:25.829Z,15.21
2022-09-10T06:36:30.266Z,15.18
2022-09-10T06:41:35.645Z,15.08
2022-09-10T06:47:16.092Z,15.05
2022-09-10T06:52:05.132Z,14.99
2022-09-10T06:57:09.037Z,14.91
2022-09-10T07:02:13.513Z,14.88
2022-09-10T07:07:18.843Z,14.93
2022-09-10T07:12:24.742Z,15.01
2022-09-10T07:17:31.879Z,15.15
2022-09-10T07:22:38.933Z,15.33
2022-09-10T07:27:44.412Z,15.36
2022-09-10T07:32:51.584Z,15.13
2022-09-10T07:37:58.245Z,15.09
2022-09-10T07:43:03.684Z,15.06
2022-09-10T07:48:09.056Z,15.11
2022-09-10T07:53:14.294Z,15.23
2022-09-10T07:58:18.411Z,15.36
2022-09-10T08:03:23.284Z,15.36
2022-09-10T08:08:33.223Z,15.33
2022-09-10T08:13:38.249Z,15.41
2022-09-10T08:18:44.138Z,15.52
2022-09-10T08:23:55.074Z,15.56
2022-09-10T08:29:00.088Z,15.56
2022-09-10T08:34:05.004Z,15.55
2022-09-10T08:39:09.281Z,15.63
2022-09-10T08:44:37.766Z,15.61
2022-09-10T08:49:48.607Z,15.58
2022-09-10T08:55:17.199Z,15.48
2022-09-10T09:00:34.396Z,15.37
2022-09-10T09:05:55.597Z,15.29
2022-09-10T09:11:11.640Z,15.27
2022-09-10T09:16:48.030Z,15.31
2022-09-10T09:21:54.880Z,15.37
2022-09-10T09:27:10.663Z,15.49
2022-09-10T09:32:18.459Z,15.58
2022-09-10T09:37:30.611Z,15.66
2022-09-10T09:43:46.047Z,15.83
2022-09-10T09:48:53.099Z,16.08
2022-09-10T09:54:38.931Z,16.39
2022-09-10T09:59:27.456Z,16.69
2022-09-10T10:04:37.064Z,16.88
2022-09-10T10:09:44.084Z,16.95
2022-09-10T10:14:46.929Z,17.01
2022-09-10T10:20:09.231Z,16.99
2022-09-10T10:25:34.283Z,16.97
2022-09-10T10:30:41.704Z,16.96
2022-09-10T10:36:00.237Z,16.87
2022-09-10T10:41:10.083Z,16.75
2022-09-10T10:46:22.197Z,16.66
2022-09-10T10:51:51.146Z,16.69
2022-09-10T10:57:28.378Z,16.72
2022-09-10T11:02:45.654Z,16.74
2022-09-10T11:07:48.446Z,16.71
2022-09-10T11:13:06.701Z,16.56
2022-09-10T11:18:20.814Z,16.56
2022-09-10T11:23:46.159Z,16.72
2022-09-10T11:29:25.831Z,16.95
2022-09-10T11:34:52.032Z,17.09
2022-09-10T11:39:58.825Z,17.07
2022-09-10T11:45:23.074Z,17.07
2022-09-10T11:50:36.306Z,17.05
2022-09-10T11:55:50.811Z,17.03
2022-09-10T12:01:02.394Z,16.98
2022-09-10T12:06:17.763Z,16.94
2022-09-10T12:11:44.132Z,16.87
2022-09-10T12:17:03.079Z,16.80
2022-09-10T12:22:16.769Z,16.82
2022-09-10T12:27:21.364Z,16.86
2022-09-10T12:32:28.384Z,16.89
2022-09-10T12:37:30.588Z,16.94
2022-09-10T12:42:37.046Z,16.95
2022-09-10T12:47:46.682Z,16.98
2022-09-10T12:52:52.506Z,16.97
2022-09-10T12:58:28.923Z,16.98
2022-09-10T13:03:32.766Z,17.04
2022-09-10T13:08:44.066Z,17.09
2022-09-10T13:13:56.317Z,17.09
2022-09-10T13:19:14.671Z,17.10
2022-09-10T13:24:37.810Z,17.10
2022-09-10T13:29:44.487Z,17.16
2022-09-10T13:35:05.054Z,17.24
2022-09-10T13:40:27.680Z,17.31
2022-09-10T13:45:41.981Z,17.39
2022-09-10T13:51:01.247Z,17.39
2022-09-10T13:56:17.998Z,17.39
2022-09-10T14:01:41.029Z,17.43
2022-09-10T14:06:51.350Z,17.42
2022-09-10T14:11:57.435Z,17.46
2022-09-10T14:17:32.961Z,17.54
2022-09-10T14:22:39.284Z,17.61
2022-09-10T14:27:45.204Z,17.65
2022-09-10T14:32:49.725Z,17.64
2022-09-10T14:37:53.116Z,17.67
2022-09-10T14:43:15.400Z,17.68
2022-09-10T14:49:01.293Z,17.66
2022-09-10T14:54:03.379Z,17.64
2022-09-10T14:59:30.666Z,17.67
2022-09-10T15:04:32.724Z,17.65
2022-09-10T15:09:35.105Z,17.67
2022-09-10T15:14:37.619Z,17.64
2022-09-10T15:19:41.502Z,17.61
2022-09-10T15:25:07.946Z,17.59
2022-09-10T15:30:08.090Z,17.55
2022-09-10T15:35:10.101Z,17.51
2022-09-10T15:40:13.302Z,17.47
2022-09-10T15:45:19.183Z,17.34
2022-09-10T15:50:23.515Z,17.28
2022-09-10T15:55:28.096Z,17.26
2022-09-10T16:00:31.140Z,17.24
2022-09-10T16:05:34.992Z,17.16
2022-09-10T16:10:40.905Z,17.06
2022-09-10T16:15:44.442Z,16.99
2022-09-10T16:20:46.966Z,16.93
2022-09-10T16:25:55.383Z,16.79
2022-09-10T16:30:59.270Z,16.65
2022-09-10T16:36:06.838Z,16.56
2022-09-10T16:41:13.262Z,16.50
2022-09-10T16:46:17.448Z,16.51
2022-09-10T16:51:23.658Z,16.45
2022-09-10T16:56:25.968Z,16.40
2022-09-10T17:01:31.383Z,16.33
2022-09-10T17:06:35.615Z,16.28
2022-09-10T17:11:38.404Z,16.15
2022-09-10T17:16:44.476Z,16.00
2022-09-10T17:21:50.693Z,15.89
2022-09-10T17:26:55.327Z,15.81
2022-09-10T17:31:58.428Z,15.77
2022-09-10T17:37:02.362Z,15.73
2022-09-10T17:42:05.091Z,15.75
2022-09-10T17:47:09.662Z,15.74
2022-09-10T17:52:15.627Z,15.71
2022-09-10T17:57:20.428Z,15.69
2022-09-10T18:02:24.115Z,15.68
2022-09-10T18:07:28.769Z,15.65
2022-09-10T18:12:32.003Z,15.63
2022-09-10T18:17:34.382Z,15.60
2022-09-10T18:22:38.314Z,15.54
2022-09-10T18:27:43.377Z,15.50
2022-09-10T18:32:48.477Z,15.46
2022-09-10T18:37:52.502Z,15.42
2022-09-10T18:42:55.284Z,15.40
2022-09-10T18:47:58.115Z,15.38
2022-09-10T18:53:01.328Z,15.30
2022-09-10T18:58:03.529Z,15.24
2022-09-10T19:03:08.423Z,15.19
2022-09-10T19:08:12.240Z,15.15
2022-09-10T19:13:15.542Z,15.16
2022-09-10T19:18:19.200Z,15.15
2022-09-10T19:23:26.169Z,15.15
2022-09-10T19:28:35.665Z,15.20
2022-09-10T19:33:43.240Z,15.18
2022-09-10T19:38:50.222Z,15.17
2022-09-10T19:43:53.343Z,15.16
2022-09-10T19:48:59.062Z,15.13
2022-09-10T19:54:03.837Z,15.08
2022-09-10T19:59:11.439Z,15.05
2022-09-10T20:04:16.394Z,15.03
2022-09-10T20:09:19.297Z,15.04
2022-09-10T20:14:22.765Z,15.06
2022-09-10T20:19:29.307Z,15.06
2022-09-10T20:24:37.083Z,15.00
2022-09-10T20:29:39.765Z,14.95
2022-09-10T20:34:43.175Z,14.94
2022-09-10T20:39:49.086Z,14.93
2022-09-10T20:44:51.939Z,14.90
2022-09-10T20:49:54.044Z,14.88
2022-09-10T20:54:56.353Z,14.83
2022-09-10T20:59:59.218Z,14.79
2022-09-10T21:05:02.627Z,14.76
2022-09-10T21:10:05.157Z,14.76
2022-09-10T21:15:08.508Z,14.75
2022-09-10T21:20:12.736Z,14.79
2022-09-10T21:25:15.640Z,14.81
2022-09-10T21:30:19.039Z,14.86
2022-09-10T21:35:23.308Z,14.87
2022-09-10T21:40:25.910Z,14.86
2022-09-10T21:45:28.716Z,14.82
2022-09-10T21:50:31.948Z,14.81
2022-09-10T21:55:34.589Z,14.80
2022-09-10T22:00:40.408Z,14.79
2022-09-10T22:05:43.899Z,14.75
2022-09-10T22:10:47.088Z,14.74
2022-09-10T22:15:51.588Z,14.71
2022-09-10T22:21:01.779Z,14.68
2022-09-10T22:26:26.086Z,14.65
2022-09-10T22:31:35.122Z,14.65
2022-09-10T22:36:40.163Z,14.64
2022-09-10T22:41:43.780Z,14.62
2022-09-10T22:46:47.385Z,14.61
2022-09-10T22:51:51.104Z,14.58
2022-09-10T22:56:54.156Z,14.56
2022-09-10T23:01:57.035Z,14.56
2022-09-10T23:07:00.902Z,14.55
2022-09-10T23:12:03.478Z,14.54
2022-09-10T23:17:06.000Z,14.56
2022-09-10T23:22:10.841Z,14.58
2022-09-10T23:27:14.030Z,14.53
2022-09-10T23:32:16.810Z,14.54
2022-09-10T23:37:19.572Z,14.53
2022-09-10T23:42:23.134Z,14.49
2022-09-10T23:47:25.647Z,14.51
2022-09-10T23:52:28.414Z,14.52
2022-09-10T23:57:31.250Z,14.57
